Terminal Aerodrome Forecast
Issued by NWS

Home | Current Version | Previous Version | Text Only | Print | Product List | Glossary On
Versions: 1 2 3 4 5 6 7 8 9 10 11 12 13 14 15 16 17 18 19 20
000
FTUS46 KSEW 301000 AAB
TAFHQM
TAF AMD
KHQM 301039Z 3011/3106 23004KT 5SM -SHRA BR SCT007 BKN016
      TEMPO 3011/3014 2SM -RA BR BKN007 BKN016 OVC022
     FM301400 18006KT P6SM -SHRA BKN008 OVC022
     FM302200 23009KT P6SM BKN025 OVC060=

USA.gov is the U.S. government's official web portal to all federal, state and local government web resources and services.